createdAt,value
2022-11-15T00:09:41.013Z,7.56
2022-11-15T00:20:13.638Z,7.55
2022-11-15T00:30:40.920Z,7.40
2022-11-15T00:41:10.255Z,7.55
2022-11-15T00:51:37.776Z,7.40
2022-11-15T01:02:05.234Z,7.42
2022-11-15T01:12:33.100Z,7.40
2022-11-15T01:23:00.463Z,7.29
2022-11-15T01:33:27.938Z,7.05
2022-11-15T01:43:59.281Z,6.74
2022-11-15T01:54:27.711Z,6.77
2022-11-15T02:04:55.176Z,6.85
2022-11-15T02:15:23.073Z,6.81
2022-11-15T02:26:11.235Z,6.41
2022-11-15T02:36:46.084Z,6.19
2022-11-15T02:47:18.327Z,6.16
2022-11-15T02:57:54.396Z,6.41
2022-11-15T03:08:28.384Z,6.60
2022-11-15T03:18:59.856Z,6.70
2022-11-15T03:29:31.221Z,6.66
2022-11-15T03:39:58.746Z,6.34
2022-11-15T03:50:27.859Z,6.21
2022-11-15T04:00:55.232Z,6.28
2022-11-15T04:11:22.552Z,6.37
2022-11-15T04:22:07.136Z,6.41
2022-11-15T04:32:34.440Z,6.46
2022-11-15T04:43:03.878Z,6.57
2022-11-15T04:53:31.879Z,6.73
2022-11-15T05:04:17.563Z,6.70
2022-11-15T05:14:45.477Z,6.67
2022-11-15T05:25:13.505Z,6.60
2022-11-15T05:35:44.448Z,6.36
2022-11-15T05:46:12.238Z,6.22
2022-11-15T05:56:39.683Z,5.90
2022-11-15T06:07:07.073Z,5.73
2022-11-15T06:17:34.484Z,5.64
2022-11-15T06:28:02.509Z,5.37
2022-11-15T06:38:30.225Z,5.26
2022-11-15T06:48:57.665Z,5.12
2022-11-15T06:59:25.037Z,4.95
2022-11-15T07:09:52.363Z,5.04
2022-11-15T07:20:20.619Z,5.35
2022-11-15T07:30:49.538Z,5.54
2022-11-15T07:41:16.839Z,5.76
2022-11-15T07:51:44.167Z,5.72
2022-11-15T08:02:13.480Z,5.73
2022-11-15T08:12:41.559Z,5.88
2022-11-15T08:23:10.475Z,5.88
2022-11-15T08:33:39.007Z,6.05
2022-11-15T08:44:06.597Z,6.20
2022-11-15T08:54:33.961Z,6.06
2022-11-15T09:05:01.264Z,6.12
2022-11-15T09:15:28.687Z,6.37
2022-11-15T09:26:00.195Z,6.68
2022-11-15T09:36:27.759Z,7.07
2022-11-15T09:47:07.478Z,7.34
2022-11-15T09:57:44.287Z,7.53
2022-11-15T10:08:27.753Z,7.83
2022-11-15T10:19:03.394Z,8.09
2022-11-15T10:29:30.790Z,8.22
2022-11-15T10:40:16.493Z,8.34
2022-11-15T10:50:45.769Z,8.40
2022-11-15T11:01:19.249Z,8.54
2022-11-15T11:11:52.751Z,8.87
2022-11-15T11:22:28.852Z,9.27
2022-11-15T11:33:11.437Z,9.62
2022-11-15T11:43:50.885Z,9.94
2022-11-15T11:54:25.112Z,10.18
2022-11-15T12:04:55.283Z,10.34
2022-11-15T12:15:26.599Z,10.43
2022-11-15T12:25:57.947Z,10.47
2022-11-15T12:36:43.539Z,10.51
2022-11-15T12:47:27.059Z,10.55
2022-11-15T12:57:56.163Z,10.58
2022-11-15T13:08:41.857Z,10.69
2022-11-15T13:19:12.533Z,10.78
2022-11-15T13:29:40.001Z,10.92
2022-11-15T13:40:28.711Z,10.97
2022-11-15T13:50:56.063Z,10.90
2022-11-15T14:01:25.031Z,10.95
2022-11-15T14:11:57.530Z,10.92
2022-11-15T14:22:29.268Z,10.76
2022-11-15T14:32:56.738Z,10.79
2022-11-15T14:43:24.421Z,10.63
2022-11-15T14:53:52.175Z,10.76
2022-11-15T15:04:19.515Z,10.87
2022-11-15T15:14:47.252Z,10.94
2022-11-15T15:25:28.326Z,10.94
2022-11-15T15:35:55.947Z,10.67
2022-11-15T15:46:23.759Z,10.16
2022-11-15T15:56:55.952Z,10.24
2022-11-15T16:07:25.719Z,10.40
2022-11-15T16:17:55.993Z,10.53
2022-11-15T16:28:27.479Z,10.61
2022-11-15T16:38:54.977Z,10.60
2022-11-15T16:49:23.417Z,10.62
2022-11-15T16:59:49.228Z,10.40
2022-11-15T17:10:17.173Z,10.40
2022-11-15T17:20:44.936Z,10.59
2022-11-15T17:31:13.651Z,10.72
2022-11-15T17:41:40.888Z,10.71
2022-11-15T17:52:08.834Z,10.66
2022-11-15T18:02:36.208Z,10.53
2022-11-15T18:13:03.529Z,10.50
2022-11-15T18:23:31.289Z,10.36
2022-11-15T18:33:59.506Z,10.32
2022-11-15T18:44:26.819Z,10.35
2022-11-15T18:54:54.187Z,10.26
2022-11-15T19:05:21.586Z,10.32
2022-11-15T19:15:48.853Z,10.32
2022-11-15T19:26:17.795Z,10.31
2022-11-15T19:36:46.380Z,10.30
2022-11-15T19:47:13.704Z,10.30
2022-11-15T19:57:40.985Z,10.30
2022-11-15T20:08:08.737Z,10.27
2022-11-15T20:18:36.568Z,10.30
2022-11-15T20:29:04.118Z,10.34
2022-11-15T20:39:31.546Z,10.46
2022-11-15T20:50:14.840Z,10.53
2022-11-15T21:00:46.940Z,10.52
2022-11-15T21:11:31.566Z,10.36
2022-11-15T21:21:58.909Z,10.11
2022-11-15T21:32:26.169Z,10.24
2022-11-15T21:42:53.435Z,10.35
2022-11-15T21:53:20.754Z,10.38
2022-11-15T22:03:48.412Z,10.41
2022-11-15T22:14:15.697Z,10.24
2022-11-15T22:24:43.004Z,10.22
2022-11-15T22:35:11.271Z,10.17
2022-11-15T22:45:38.760Z,10.19
2022-11-15T22:56:07.484Z,10.07
2022-11-15T23:06:34.834Z,10.20
2022-11-15T23:17:02.127Z,10.40
2022-11-15T23:27:29.390Z,10.39
2022-11-15T23:37:56.771Z,10.35
2022-11-15T23:48:24.462Z,10.07
2022-11-15T23:58:52.194Z,9.53
